createdAt,value
2023-04-18T00:07:45.642Z,15.30
2023-04-18T00:18:22.287Z,15.00
2023-04-18T00:28:29.759Z,13.30
2023-04-18T00:38:32.335Z,14.10
2023-04-18T00:48:36.809Z,14.50
2023-04-18T00:58:41.351Z,15.70
2023-04-18T01:08:45.865Z,13.47
2023-04-18T01:18:54.977Z,14.00
2023-04-18T01:28:57.501Z,14.93
2023-04-18T01:39:00.328Z,16.43
2023-04-18T01:49:06.022Z,13.27
2023-04-18T01:59:10.622Z,14.40
2023-04-18T02:09:13.820Z,13.70
2023-04-18T02:19:18.379Z,15.13
2023-04-18T02:29:22.931Z,14.40
2023-04-18T02:39:25.363Z,15.63
2023-04-18T02:49:27.657Z,14.43
2023-04-18T02:59:29.907Z,15.67
2023-04-18T03:09:54.827Z,17.87
2023-04-18T03:20:04.766Z,17.97
2023-04-18T03:30:08.217Z,16.00
2023-04-18T03:40:14.951Z,15.87
2023-04-18T03:50:24.638Z,16.33
2023-04-18T04:00:29.776Z,16.67
2023-04-18T04:10:41.043Z,14.73
2023-04-18T04:20:53.195Z,16.70
2023-04-18T04:31:10.811Z,16.03
2023-04-18T04:41:21.161Z,15.37
2023-04-18T04:51:26.456Z,15.43
2023-04-18T05:01:31.147Z,15.10
2023-04-18T05:11:36.786Z,14.57
2023-04-18T05:21:39.006Z,15.33
2023-04-18T05:31:44.243Z,14.30
2023-04-18T05:41:47.738Z,14.67
2023-04-18T05:51:56.761Z,14.53
2023-04-18T06:02:13.530Z,13.53
2023-04-18T06:12:17.704Z,13.17
2023-04-18T06:22:36.209Z,13.53
2023-04-18T06:32:39.004Z,13.77
2023-04-18T06:42:42.760Z,15.32
2023-04-18T06:52:45.890Z,13.77
2023-04-18T07:02:48.619Z,14.00
2023-04-18T07:12:53.192Z,13.77
2023-04-18T07:22:55.564Z,13.43
2023-04-18T07:32:57.842Z,12.73
2023-04-18T07:43:00.053Z,13.25
2023-04-18T07:53:05.033Z,12.75
2023-04-18T08:03:10.705Z,11.95
2023-04-18T08:13:15.222Z,12.98
2023-04-18T08:23:18.852Z,11.35
2023-04-18T08:33:22.790Z,11.93
2023-04-18T08:43:31.458Z,10.35
2023-04-18T08:53:34.632Z,9.93
2023-04-18T09:03:43.454Z,5.97
2023-04-18T09:13:50.648Z,12.07
2023-04-18T09:24:18.665Z,10.38
2023-04-18T09:34:32.469Z,10.40
2023-04-18T09:44:38.902Z,10.65
2023-04-18T09:54:41.225Z,11.90
2023-04-18T10:04:48.321Z,10.02
2023-04-18T10:14:58.345Z,8.23
2023-04-18T10:25:00.950Z,10.35
2023-04-18T10:35:07.621Z,8.93
2023-04-18T10:45:23.556Z,7.80
2023-04-18T10:55:31.060Z,9.27
2023-04-18T11:05:33.381Z,8.02
2023-04-18T11:15:37.311Z,9.32
2023-04-18T11:25:45.138Z,10.35
2023-04-18T11:35:49.898Z,9.48
2023-04-18T11:45:59.673Z,10.27
2023-04-18T11:56:04.351Z,9.88
2023-04-18T12:06:06.980Z,8.68
2023-04-18T12:16:12.628Z,8.52
2023-04-18T12:26:24.031Z,8.85
2023-04-18T12:36:29.061Z,9.02
2023-04-18T12:46:31.756Z,8.27
2023-04-18T12:56:36.618Z,7.85
2023-04-18T13:06:41.326Z,7.35
2023-04-18T13:16:46.806Z,7.63
2023-04-18T13:26:53.516Z,7.50
2023-04-18T13:36:58.895Z,6.25
2023-04-18T13:47:03.054Z,7.03
2023-04-18T13:57:12.005Z,6.90
2023-04-18T14:07:19.558Z,5.68
2023-04-18T14:17:25.300Z,5.63
2023-04-18T14:27:29.411Z,5.20
2023-04-18T14:37:31.817Z,5.65
2023-04-18T14:47:35.095Z,5.50
2023-04-18T14:57:41.292Z,5.03
2023-04-18T15:07:48.354Z,4.43
2023-04-18T15:17:52.897Z,5.55
2023-04-18T15:27:56.180Z,4.40
2023-04-18T15:38:00.929Z,4.55
2023-04-18T15:48:07.123Z,3.90
2023-04-18T15:58:10.274Z,4.15
2023-04-18T16:08:16.145Z,4.18
2023-04-18T16:18:21.676Z,4.07
2023-04-18T16:28:25.120Z,4.10
2023-04-18T16:38:29.671Z,4.68
2023-04-18T16:48:37.258Z,4.82
2023-04-18T16:58:39.583Z,4.50
2023-04-18T17:08:49.195Z,4.68
2023-04-18T17:18:54.437Z,4.93
2023-04-18T17:28:56.663Z,4.97
2023-04-18T17:39:06.589Z,4.72
2023-04-18T17:49:11.590Z,4.60
2023-04-18T17:59:14.435Z,5.50
2023-04-18T18:09:19.962Z,6.35
2023-04-18T18:19:24.535Z,6.95
2023-04-18T18:29:31.667Z,5.38
2023-04-18T18:39:38.694Z,5.20
2023-04-18T18:49:48.972Z,5.80
2023-04-18T18:59:51.794Z,5.40
2023-04-18T19:09:55.580Z,5.88
2023-04-18T19:20:04.455Z,5.50
2023-04-18T19:30:12.209Z,5.35
2023-04-18T19:40:15.965Z,5.90
2023-04-18T19:50:19.592Z,5.68
2023-04-18T20:00:25.685Z,4.97
2023-04-18T20:10:27.975Z,4.55
2023-04-18T20:20:39.642Z,4.15
2023-04-18T20:30:54.318Z,4.72
2023-04-18T20:40:59.055Z,4.82
2023-04-18T20:51:03.674Z,5.18
2023-04-18T21:01:10.589Z,4.85
2023-04-18T21:11:13.022Z,7.13
2023-04-18T21:21:16.172Z,5.90
2023-04-18T21:31:19.713Z,5.50
2023-04-18T21:41:26.158Z,5.10
2023-04-18T21:51:29.802Z,5.63
2023-04-18T22:01:34.688Z,5.35
2023-04-18T22:11:41.615Z,5.85
2023-04-18T22:21:47.526Z,5.15
2023-04-18T22:31:53.636Z,5.50
2023-04-18T22:41:59.458Z,5.50
2023-04-18T22:52:02.579Z,4.97
2023-04-18T23:02:12.990Z,3.83
2023-04-18T23:12:18.897Z,4.78
2023-04-18T23:22:27.075Z,4.65
2023-04-18T23:32:33.384Z,4.63
2023-04-18T23:42:42.484Z,5.60
2023-04-18T23:52:50.270Z,4.65
